createdAt,value
2018-06-07T00:00:47.312Z,26.00
2018-06-07T00:03:15.452Z,25.90
2018-06-07T00:05:43.554Z,25.90
2018-06-07T00:10:39.572Z,25.70
2018-06-07T00:13:07.696Z,25.70
2018-06-07T00:15:35.804Z,25.70
2018-06-07T00:18:03.904Z,25.70
2018-06-07T00:22:59.956Z,25.70
2018-06-07T00:25:28.052Z,25.60
2018-06-07T00:27:56.200Z,25.30
2018-06-07T00:30:24.315Z,25.40
2018-06-07T00:32:52.421Z,25.30
2018-06-07T00:35:20.523Z,25.20
2018-06-07T00:37:48.647Z,25.30
2018-06-07T00:40:16.746Z,25.20
2018-06-07T00:42:44.834Z,25.10
2018-06-07T00:45:12.935Z,25.00
2018-06-07T00:47:41.047Z,25.20
2018-06-07T00:50:09.131Z,25.40
2018-06-07T00:52:37.195Z,25.20
2018-06-07T00:55:05.283Z,25.20
2018-06-07T01:00:01.331Z,25.30
2018-06-07T01:02:30.106Z,25.40
2018-06-07T01:04:58.170Z,25.40
2018-06-07T01:07:26.294Z,25.40
2018-06-07T01:09:54.370Z,25.30
2018-06-07T01:12:22.430Z,25.20
2018-06-07T01:14:50.515Z,25.20
2018-06-07T01:17:18.598Z,25.20
2018-06-07T01:19:46.732Z,25.10
2018-06-07T01:22:14.884Z,25.00
2018-06-07T01:24:42.971Z,24.80
2018-06-07T01:27:11.051Z,24.70
2018-06-07T01:29:50.544Z,24.40
2018-06-07T01:33:34.000Z,24.60
2018-06-07T01:36:02.520Z,24.50
2018-06-07T01:41:04.104Z,24.50
2018-06-07T01:43:32.171Z,24.20
2018-06-07T01:46:00.264Z,24.50
2018-06-07T01:48:28.367Z,24.60
2018-06-07T01:50:56.483Z,24.60
2018-06-07T01:55:52.439Z,24.50
2018-06-07T01:58:20.516Z,24.60
2018-06-07T02:00:48.607Z,24.60
2018-06-07T02:03:16.692Z,24.50
2018-06-07T02:05:45.009Z,24.00
2018-06-07T02:08:13.141Z,24.00
2018-06-07T02:10:41.276Z,24.10
2018-06-07T02:13:09.360Z,24.20
2018-06-07T02:15:37.503Z,24.30
2018-06-07T02:18:05.672Z,24.00
2018-06-07T02:20:33.796Z,24.10
2018-06-07T02:23:01.880Z,24.20
2018-06-07T02:25:29.963Z,24.20
2018-06-07T02:27:58.072Z,24.30
2018-06-07T02:30:26.214Z,24.20
2018-06-07T02:32:54.291Z,24.20
2018-06-07T02:35:22.416Z,24.20
2018-06-07T02:37:50.505Z,24.10
2018-06-07T02:40:18.613Z,24.20
2018-06-07T02:42:46.725Z,24.20
2018-06-07T02:45:14.868Z,24.20
2018-06-07T02:47:43.013Z,23.90
2018-06-07T02:50:11.170Z,24.00
2018-06-07T02:52:39.303Z,24.00
2018-06-07T02:55:07.404Z,23.80
2018-06-07T02:57:35.588Z,23.70
2018-06-07T03:00:03.776Z,23.60
2018-06-07T03:02:31.876Z,23.80
2018-06-07T03:04:59.951Z,23.70
2018-06-07T03:07:28.060Z,23.60
2018-06-07T03:09:56.140Z,23.70
2018-06-07T03:12:24.224Z,23.80
2018-06-07T03:14:52.356Z,23.80
2018-06-07T03:17:20.481Z,23.90
2018-06-07T03:19:48.588Z,23.80
2018-06-07T03:24:44.672Z,23.40
2018-06-07T03:27:12.817Z,23.30
2018-06-07T03:29:40.882Z,23.40
2018-06-07T03:34:36.892Z,23.70
2018-06-07T03:37:05.069Z,23.80
2018-06-07T03:39:33.167Z,24.00
2018-06-07T03:42:01.276Z,24.10
2018-06-07T03:44:29.344Z,24.00
2018-06-07T03:46:57.432Z,23.70
2018-06-07T03:49:25.595Z,23.80
2018-06-07T03:51:53.697Z,23.90
2018-06-07T03:54:21.764Z,23.70
2018-06-07T03:56:49.839Z,23.60
2018-06-07T03:59:17.911Z,23.70
2018-06-07T04:01:46.016Z,24.00
2018-06-07T04:04:14.115Z,23.60
2018-06-07T04:06:42.192Z,23.90
2018-06-07T04:09:10.311Z,24.00
2018-06-07T04:11:38.448Z,23.90
2018-06-07T04:14:06.532Z,23.80
2018-06-07T04:16:34.656Z,23.90
2018-06-07T04:21:31.473Z,24.00
2018-06-07T04:23:59.550Z,24.00
2018-06-07T04:26:27.635Z,23.80
2018-06-07T04:28:55.735Z,23.90
2018-06-07T04:31:23.871Z,23.80
2018-06-07T04:33:51.940Z,23.70
2018-06-07T04:36:20.040Z,23.80
2018-06-07T04:38:48.151Z,23.80
2018-06-07T04:41:16.272Z,23.90
2018-06-07T04:43:44.368Z,23.80
2018-06-07T04:46:12.468Z,23.80
2018-06-07T04:48:40.552Z,23.90
2018-06-07T04:51:08.647Z,23.80
2018-06-07T04:53:36.732Z,24.00
2018-06-07T04:56:04.847Z,24.00
2018-06-07T04:58:32.943Z,24.10
2018-06-07T05:01:01.015Z,24.10
2018-06-07T05:03:29.096Z,24.00
2018-06-07T05:05:57.186Z,24.00
2018-06-07T05:08:25.275Z,24.00
2018-06-07T05:10:53.372Z,24.00
2018-06-07T05:13:21.468Z,24.00
2018-06-07T05:15:49.567Z,24.00
2018-06-07T05:18:17.648Z,24.00
2018-06-07T05:20:45.727Z,24.00
2018-06-07T05:23:13.832Z,24.00
2018-06-07T05:28:09.833Z,23.80
2018-06-07T05:30:37.915Z,23.80
2018-06-07T05:33:06.037Z,23.80
2018-06-07T05:35:34.123Z,23.70
2018-06-07T05:38:02.216Z,23.70
2018-06-07T05:40:30.372Z,23.80
2018-06-07T05:42:58.461Z,24.00
2018-06-07T05:45:26.531Z,24.00
2018-06-07T05:47:54.645Z,23.90
2018-06-07T05:50:22.732Z,24.00
2018-06-07T05:52:50.829Z,24.20
2018-06-07T05:55:18.904Z,24.10
2018-06-07T05:57:47.011Z,24.20
2018-06-07T06:00:15.120Z,24.30
2018-06-07T06:02:43.245Z,24.30
2018-06-07T06:05:11.324Z,24.00
2018-06-07T06:07:39.426Z,24.10
2018-06-07T06:10:07.505Z,24.00
2018-06-07T06:12:35.577Z,24.30
2018-06-07T06:15:03.679Z,24.40
2018-06-07T06:17:31.784Z,24.30
2018-06-07T06:22:27.787Z,24.20
2018-06-07T06:24:55.870Z,24.20
2018-06-07T06:27:23.967Z,24.40
2018-06-07T06:29:52.039Z,24.60
2018-06-07T06:32:20.111Z,24.60
2018-06-07T06:34:48.187Z,24.20
2018-06-07T06:37:17.966Z,24.40
2018-06-07T06:42:13.936Z,24.60
2018-06-07T06:44:42.023Z,24.70
2018-06-07T06:47:10.092Z,25.00
2018-06-07T06:49:38.171Z,25.00
2018-06-07T06:54:34.163Z,25.20
2018-06-07T06:57:02.252Z,25.40
2018-06-07T06:59:30.331Z,25.40
2018-06-07T07:01:58.411Z,25.40
2018-06-07T07:04:26.508Z,25.50
2018-06-07T07:06:54.601Z,25.60
2018-06-07T07:09:22.707Z,25.70
2018-06-07T07:11:50.763Z,25.60
2018-06-07T07:14:18.863Z,25.80
2018-06-07T07:16:46.955Z,25.90
2018-06-07T07:19:15.047Z,25.80
2018-06-07T07:21:43.116Z,25.80
2018-06-07T07:24:11.222Z,26.00
2018-06-07T07:26:39.309Z,26.10
2018-06-07T07:29:07.376Z,26.20
2018-06-07T07:31:35.460Z,26.00
2018-06-07T07:34:03.523Z,26.00
2018-06-07T07:36:31.604Z,26.10
2018-06-07T07:38:59.691Z,26.30
2018-06-07T07:41:27.776Z,26.60
2018-06-07T07:43:55.863Z,26.70
2018-06-07T07:51:19.694Z,26.60
2018-06-07T07:53:47.767Z,26.70
2018-06-07T07:56:15.853Z,26.70
2018-06-07T07:58:43.916Z,27.10
2018-06-07T08:01:12.023Z,27.00
2018-06-07T08:03:40.120Z,27.30
2018-06-07T08:06:08.199Z,27.50
2018-06-07T08:08:36.307Z,27.60
2018-06-07T08:11:04.419Z,27.70
2018-06-07T08:13:32.512Z,27.50
2018-06-07T08:16:00.600Z,27.70
2018-06-07T08:18:28.680Z,27.80
2018-06-07T08:20:56.769Z,27.90
2018-06-07T08:23:24.869Z,28.20
2018-06-07T08:25:52.956Z,28.40
2018-06-07T08:28:21.047Z,28.50
2018-06-07T08:30:49.151Z,28.50
2018-06-07T08:33:17.247Z,28.70
2018-06-07T08:35:45.335Z,28.60
2018-06-07T08:38:13.424Z,28.70
2018-06-07T08:40:41.491Z,29.00
2018-06-07T08:43:09.557Z,29.20
2018-06-07T08:45:37.645Z,29.30
2018-06-07T08:48:05.720Z,29.40
2018-06-07T08:50:33.808Z,29.00
2018-06-07T08:53:01.896Z,29.00
2018-06-07T08:55:30.030Z,29.00
2018-06-07T08:57:58.133Z,29.10
2018-06-07T09:00:26.277Z,29.30
2018-06-07T09:02:54.323Z,29.70
2018-06-07T09:05:22.413Z,29.20
2018-06-07T09:07:50.480Z,29.60
2018-06-07T09:10:18.548Z,29.80
2018-06-07T09:12:46.653Z,29.80
2018-06-07T09:15:14.726Z,29.80
2018-06-07T09:17:42.860Z,29.80
2018-06-07T09:20:10.928Z,29.90
2018-06-07T09:22:39.038Z,29.90
2018-06-07T09:25:07.151Z,30.30
2018-06-07T09:27:35.244Z,29.90
2018-06-07T09:30:03.336Z,29.80
2018-06-07T09:32:31.423Z,30.20
2018-06-07T09:34:59.539Z,30.10
2018-06-07T09:37:27.631Z,30.50
2018-06-07T09:39:55.694Z,30.70
2018-06-07T09:42:23.784Z,30.70
2018-06-07T09:44:51.883Z,30.60
2018-06-07T09:47:19.969Z,30.90
2018-06-07T09:49:48.027Z,31.00
2018-06-07T09:52:16.164Z,31.60
2018-06-07T09:54:44.259Z,31.60
2018-06-07T09:57:12.353Z,31.80
2018-06-07T09:59:40.435Z,31.60
2018-06-07T10:02:08.537Z,31.30
2018-06-07T10:04:36.603Z,31.50
2018-06-07T10:07:04.728Z,31.30
2018-06-07T10:09:32.788Z,31.90
2018-06-07T10:12:00.923Z,32.20
2018-06-07T10:14:29.004Z,32.60
2018-06-07T10:16:57.082Z,31.90
2018-06-07T10:19:25.261Z,32.30
2018-06-07T10:21:53.363Z,32.90
2018-06-07T10:24:21.449Z,32.80
2018-06-07T10:26:49.528Z,32.50
2018-06-07T10:31:45.520Z,32.40
2018-06-07T10:34:13.606Z,32.70
2018-06-07T10:36:41.732Z,33.00
2018-06-07T10:39:09.823Z,33.40
2018-06-07T10:41:39.892Z,33.80
2018-06-07T10:49:03.782Z,34.50
2018-06-07T10:51:31.878Z,34.60
2018-06-07T10:53:59.980Z,33.70
2018-06-07T10:56:28.063Z,33.50
2018-06-07T10:58:56.232Z,33.00
2018-06-07T11:01:24.261Z,33.40
2018-06-07T11:03:52.360Z,33.90
2018-06-07T11:06:20.431Z,34.10
2018-06-07T11:08:48.570Z,33.10
2018-06-07T11:11:16.651Z,33.70
2018-06-07T11:13:44.739Z,33.40
2018-06-07T11:16:12.839Z,33.50
2018-06-07T11:18:40.927Z,33.50
2018-06-07T11:21:09.216Z,34.40
2018-06-07T11:23:37.332Z,34.60
2018-06-07T11:26:05.411Z,34.70
2018-06-07T11:31:01.376Z,35.10
2018-06-07T11:33:29.464Z,35.00
2018-06-07T11:35:57.577Z,36.10
2018-06-07T11:38:25.700Z,39.20
2018-06-07T11:40:53.844Z,41.30
2018-06-07T11:43:21.876Z,42.90
2018-06-07T11:48:17.852Z,44.40
2018-06-07T11:50:45.983Z,45.40
2018-06-07T11:53:14.080Z,46.30
2018-06-07T11:55:42.158Z,46.90
2018-06-07T11:58:10.264Z,48.00
2018-06-07T12:00:38.336Z,48.60
2018-06-07T12:03:06.428Z,49.20
2018-06-07T12:05:34.512Z,50.20
2018-06-07T12:08:02.588Z,50.60
2018-06-07T12:10:30.674Z,48.90
2018-06-07T12:12:58.779Z,50.20
2018-06-07T12:15:26.868Z,50.90
2018-06-07T12:17:54.964Z,51.50
2018-06-07T12:20:23.067Z,51.60
2018-06-07T12:22:51.208Z,52.50
2018-06-07T12:27:47.143Z,51.40
2018-06-07T12:30:15.248Z,52.00
2018-06-07T12:32:43.344Z,52.40
2018-06-07T12:35:11.415Z,52.00
2018-06-07T12:37:39.648Z,52.20
2018-06-07T12:40:07.799Z,51.90
2018-06-07T12:42:35.868Z,53.00
2018-06-07T12:45:05.035Z,52.70
2018-06-07T12:47:33.118Z,53.00
2018-06-07T12:50:01.211Z,53.40
2018-06-07T12:52:29.287Z,53.70
2018-06-07T12:54:57.389Z,53.90
2018-06-07T12:57:25.664Z,54.00
2018-06-07T12:59:53.975Z,53.60
2018-06-07T13:02:22.071Z,53.70
2018-06-07T13:04:50.156Z,53.70
2018-06-07T13:07:18.239Z,54.50
2018-06-07T13:09:46.356Z,54.50
2018-06-07T13:12:14.432Z,54.20
2018-06-07T13:17:10.404Z,52.80
2018-06-07T13:19:38.487Z,52.40
2018-06-07T13:22:06.579Z,52.70
2018-06-07T13:24:34.668Z,52.30
2018-06-07T13:27:02.739Z,52.50
2018-06-07T13:29:30.820Z,52.50
2018-06-07T13:31:58.912Z,52.90
2018-06-07T13:36:54.872Z,52.70
2018-06-07T13:39:22.959Z,52.30
2018-06-07T13:41:51.036Z,52.10
2018-06-07T13:44:19.117Z,51.90
2018-06-07T13:46:47.213Z,51.50
2018-06-07T13:49:15.351Z,51.30
2018-06-07T13:51:43.440Z,48.40
2018-06-07T13:54:11.540Z,48.70
2018-06-07T13:56:39.628Z,50.00
2018-06-07T14:01:35.603Z,49.40
2018-06-07T14:04:03.704Z,48.10
2018-06-07T14:13:55.439Z,42.40
2018-06-07T14:16:23.547Z,41.40
2018-06-07T14:18:51.635Z,40.70
2018-06-07T14:21:19.713Z,38.40
2018-06-07T14:23:47.796Z,36.60
2018-06-07T14:26:15.865Z,37.20
2018-06-07T14:28:43.944Z,37.20
2018-06-07T14:31:12.023Z,36.50
2018-06-07T14:33:40.138Z,35.70
2018-06-07T14:36:08.230Z,33.80
2018-06-07T14:38:36.317Z,33.80
2018-06-07T14:41:04.420Z,34.10
2018-06-07T14:46:00.392Z,32.50
2018-06-07T14:48:28.455Z,32.60
2018-06-07T14:50:56.551Z,33.30
2018-06-07T14:53:24.629Z,34.10
2018-06-07T14:55:52.712Z,34.40
2018-06-07T14:58:20.783Z,33.70
2018-06-07T15:00:48.885Z,33.90
2018-06-07T15:08:12.699Z,33.80
2018-06-07T15:10:40.767Z,33.40
2018-06-07T15:13:08.848Z,33.30
2018-06-07T15:18:04.948Z,33.70
2018-06-07T15:20:33.057Z,33.00
2018-06-07T15:23:01.144Z,32.00
2018-06-07T15:25:29.256Z,31.60
2018-06-07T15:27:57.345Z,31.30
2018-06-07T15:30:25.468Z,31.00
2018-06-07T15:32:53.568Z,31.90
2018-06-07T15:35:21.647Z,32.00
2018-06-07T15:37:49.732Z,32.60
2018-06-07T15:40:17.846Z,32.50
2018-06-07T15:42:45.936Z,32.20
2018-06-07T15:45:14.015Z,32.10
2018-06-07T15:47:42.104Z,32.80
2018-06-07T15:50:10.195Z,33.20
2018-06-07T15:52:38.279Z,33.30
2018-06-07T15:55:06.399Z,33.50
2018-06-07T15:57:34.487Z,32.50
2018-06-07T16:00:02.585Z,31.90
2018-06-07T16:02:30.672Z,31.80
2018-06-07T16:04:58.731Z,32.30
2018-06-07T16:07:26.811Z,32.30
2018-06-07T16:09:54.898Z,32.10
2018-06-07T16:14:50.839Z,32.20
2018-06-07T16:19:46.819Z,32.30
2018-06-07T16:22:14.942Z,32.60
2018-06-07T16:24:43.060Z,32.60
2018-06-07T16:27:11.136Z,32.60
2018-06-07T16:29:39.225Z,32.20
2018-06-07T16:34:35.200Z,31.80
2018-06-07T16:37:03.315Z,31.40
2018-06-07T16:39:31.389Z,31.10
2018-06-07T16:41:59.471Z,31.50
2018-06-07T16:44:27.643Z,31.80
2018-06-07T16:46:55.751Z,31.50
2018-06-07T16:49:23.845Z,31.50
2018-06-07T16:51:52.009Z,31.90
2018-06-07T16:54:20.102Z,31.90
2018-06-07T16:56:48.194Z,32.10
2018-06-07T16:59:16.323Z,32.10
2018-06-07T17:01:44.404Z,32.20
2018-06-07T17:04:12.481Z,32.30
2018-06-07T17:06:40.591Z,32.30
2018-06-07T17:09:09.358Z,32.40
2018-06-07T17:11:37.477Z,32.30
2018-06-07T17:14:05.755Z,32.10
2018-06-07T17:16:33.863Z,32.10
2018-06-07T17:21:29.820Z,32.00
2018-06-07T17:26:25.770Z,31.80
2018-06-07T17:28:53.853Z,31.80
2018-06-07T17:31:21.931Z,31.50
2018-06-07T17:33:50.057Z,31.40
2018-06-07T17:36:18.152Z,30.70
2018-06-07T17:38:46.216Z,30.40
2018-06-07T17:41:14.299Z,30.10
2018-06-07T17:43:42.387Z,29.80
2018-06-07T17:46:10.450Z,29.60
2018-06-07T17:48:38.568Z,29.50
2018-06-07T17:51:06.704Z,29.90
2018-06-07T17:53:34.794Z,30.00
2018-06-07T17:56:02.862Z,30.00
2018-06-07T17:58:30.963Z,30.10
2018-06-07T18:00:59.060Z,30.00
2018-06-07T18:03:27.180Z,29.70
2018-06-07T18:05:55.256Z,29.50
2018-06-07T18:08:23.409Z,29.40
2018-06-07T18:10:51.489Z,29.70
2018-06-07T18:13:19.580Z,30.00
2018-06-07T18:15:47.698Z,29.90
2018-06-07T18:18:15.844Z,29.70
2018-06-07T18:20:44.047Z,29.60
2018-06-07T18:23:12.223Z,29.60
2018-06-07T18:28:08.214Z,29.80
2018-06-07T18:30:36.316Z,30.10
2018-06-07T18:33:04.440Z,30.20
2018-06-07T18:35:32.718Z,30.10
2018-06-07T18:38:00.847Z,29.60
2018-06-07T18:40:28.945Z,29.60
2018-06-07T18:42:57.055Z,29.50
2018-06-07T18:45:25.156Z,29.50
2018-06-07T18:47:53.251Z,29.40
2018-06-07T18:50:21.335Z,29.50
2018-06-07T18:52:49.403Z,29.40
2018-06-07T18:55:17.536Z,29.50
2018-06-07T18:57:45.624Z,29.40
2018-06-07T19:00:13.756Z,29.30
2018-06-07T19:02:48.204Z,29.40
2018-06-07T19:05:16.347Z,29.40
2018-06-07T19:07:44.464Z,29.60
2018-06-07T19:10:13.785Z,29.60
2018-06-07T19:12:42.037Z,29.60
2018-06-07T19:15:12.362Z,29.60
2018-06-07T19:17:40.483Z,29.40
2018-06-07T19:20:13.761Z,29.60
2018-06-07T19:22:41.887Z,29.80
2018-06-07T19:25:15.236Z,29.80
2018-06-07T19:27:43.314Z,29.90
2018-06-07T19:30:11.391Z,29.80
2018-06-07T19:34:46.766Z,29.70
2018-06-07T19:37:14.832Z,29.70
2018-06-07T19:39:48.380Z,29.60
2018-06-07T19:42:16.497Z,29.40
2018-06-07T19:44:45.367Z,29.40
2018-06-07T19:47:13.447Z,29.40
2018-06-07T19:49:41.559Z,29.30
2018-06-07T19:52:09.911Z,29.30
2018-06-07T19:54:38.013Z,29.40
2018-06-07T19:57:06.118Z,29.30
2018-06-07T19:59:34.203Z,29.30
2018-06-07T20:02:02.333Z,29.30
2018-06-07T20:04:30.436Z,29.30
2018-06-07T20:06:58.519Z,29.20
2018-06-07T20:09:26.620Z,29.10
2018-06-07T20:11:54.719Z,29.10
2018-06-07T20:14:22.913Z,29.10
2018-06-07T20:16:50.927Z,29.00
2018-06-07T20:19:19.040Z,29.00
2018-06-07T20:21:47.151Z,28.90
2018-06-07T20:24:15.303Z,28.90
2018-06-07T20:26:43.395Z,28.80
2018-06-07T20:29:11.477Z,28.80
2018-06-07T20:31:39.575Z,28.70
2018-06-07T20:34:07.655Z,28.70
2018-06-07T20:36:35.748Z,28.50
2018-06-07T20:39:06.653Z,28.50
2018-06-07T20:41:34.755Z,28.40
2018-06-07T20:44:02.874Z,28.30
2018-06-07T20:46:31.007Z,28.20
2018-06-07T20:48:59.083Z,28.10
2018-06-07T20:51:27.187Z,28.00
2018-06-07T20:53:55.323Z,27.90
2018-06-07T20:56:23.475Z,27.80
2018-06-07T20:58:51.586Z,27.70
2018-06-07T21:01:19.711Z,27.50
2018-06-07T21:03:47.881Z,27.50
2018-06-07T21:06:15.999Z,27.60
2018-06-07T21:08:44.107Z,27.50
2018-06-07T21:11:12.219Z,27.40
2018-06-07T21:13:40.298Z,27.30
2018-06-07T21:16:08.455Z,27.20
2018-06-07T21:18:36.535Z,27.20
2018-06-07T21:21:04.703Z,27.20
2018-06-07T21:23:32.892Z,27.10
2018-06-07T21:26:00.976Z,27.10
2018-06-07T21:28:29.056Z,27.10
2018-06-07T21:30:57.134Z,27.10
2018-06-07T21:35:53.149Z,27.10
2018-06-07T21:38:21.243Z,26.90
2018-06-07T21:40:49.316Z,27.00
2018-06-07T21:43:17.395Z,27.10
2018-06-07T21:45:45.466Z,27.00
2018-06-07T21:48:13.629Z,27.00
2018-06-07T21:50:41.711Z,26.90
2018-06-07T21:53:09.804Z,26.90
2018-06-07T21:55:37.935Z,26.80
2018-06-07T21:58:06.085Z,26.70
2018-06-07T22:00:34.223Z,26.70
2018-06-07T22:03:02.316Z,26.60
2018-06-07T22:05:30.399Z,26.60
2018-06-07T22:07:58.496Z,26.70
2018-06-07T22:10:26.571Z,26.80
2018-06-07T22:12:54.644Z,26.90
2018-06-07T22:15:22.720Z,27.10
2018-06-07T22:17:50.820Z,27.20
2018-06-07T22:20:18.914Z,27.30
2018-06-07T22:22:46.999Z,27.30
2018-06-07T22:25:15.092Z,27.40
2018-06-07T22:27:43.192Z,27.40
2018-06-07T22:30:11.287Z,27.40
2018-06-07T22:35:07.315Z,27.50
2018-06-07T22:37:35.391Z,27.50
2018-06-07T22:40:03.472Z,27.60
2018-06-07T22:42:31.544Z,27.60
2018-06-07T22:44:59.651Z,27.60
2018-06-07T22:47:27.716Z,27.60
2018-06-07T22:49:55.791Z,27.60
2018-06-07T22:52:23.874Z,27.60
2018-06-07T22:54:51.981Z,27.60
2018-06-07T22:57:20.052Z,27.60
2018-06-07T22:59:48.127Z,27.60
2018-06-07T23:02:16.200Z,27.60
2018-06-07T23:04:44.543Z,27.60
2018-06-07T23:07:12.612Z,27.60
2018-06-07T23:09:40.752Z,27.60
2018-06-07T23:14:36.821Z,27.50
2018-06-07T23:17:04.890Z,27.50
2018-06-07T23:19:32.975Z,27.50
2018-06-07T23:22:01.096Z,27.50
2018-06-07T23:24:29.187Z,27.50
2018-06-07T23:31:53.035Z,27.40
2018-06-07T23:34:21.112Z,27.40
2018-06-07T23:36:49.204Z,27.40
2018-06-07T23:39:17.288Z,27.40
2018-06-07T23:41:45.358Z,27.40
2018-06-07T23:44:13.438Z,27.40
2018-06-07T23:46:41.500Z,27.30
2018-06-07T23:49:09.575Z,27.30
2018-06-07T23:51:37.651Z,27.30
2018-06-07T23:54:05.762Z,27.30
2018-06-07T23:56:33.836Z,27.30
2018-06-07T23:59:01.925Z,27.30
